الصفحة الرئيسية
METAR-TAF:

METAR-TAF

مطار :

فور دو فرانس, مارتينيك

دائرة عرض: 14-36N, خط طول: 061-00W, ارتفاع: 5 متر

مراقبة الطقس الحالي

تاريخ ووقت الإصدار 16 دقيقة قبل الساعة 13:00UTC
ريح 16 عقدة من الشرق
درجة الحرارة 26°درجة مئوية
الرطوبة 74%
ضغط 1019 hPa
الرؤية 10 كم أو أكثر

METAR: TFFF 231300Z AUTO 10016KT 9999 FEW027/// SCT047/// BKN088/// ///TCU 26/21 Q1019 TEMPO 08016G26KT 4000 SHRA

زمن: 09:16 (13:16 UTC)

توقعات

تاريخ ووقت الإصدار 3ساعات و 16 دقيقة قبل الساعة 10:00UTC
التوقعات صالحة من23 الساعة 12 UTC إلى 24 الساعة 12 UTC
ريح 16 عقدة من الشرق
الرؤية 10 كم أو أكثر
غيوم متفرقة على ارتفاع 3000 قدم
نظرية الاحتمالات 30% :
مؤقت
من 23 الساعة 12 UTC إلى 24 الساعة 12 UTC
ريح 16 عقدة من الشرق تتزايد حتى 26 عقدة
الرؤية: 4000 متر
غيوم متفرقة على ارتفاع 2800 قدم, مزن ركامية عمودية.
زخات من المطر

TAF: TFFF 231000Z 2312/2412 08016KT 9999 SCT030 PROB30 TEMPO 2312/2412 08016G26KT 4000 SHRA SCT028TCU

أرصاد الطقس والتوقعات من أكثر من 4000 مطار (تقارير الطقس للمطار METAR والتنبؤ بالطقس بالمطارTAF).

المحطات المتاحة هي النقط الصفراء والحمراء على الخريطة.

حرك المؤشر فوق النقطة لمعرفة اسم المحطة.

ثم انقر لمعرفة أرصاد وتوقعات الطقس.

لتغيير الخارطة: اضغط على الأزرار الخضراء مع رمز الصليب الأسود للتكبير. على الزر الأخضر مع شرطة للتصغير، أو على الأسهم الخضراء للخرائط المجاورة.


METAR-TAF: